createdAt,value
2017-01-09T00:00:37.484Z,5
2017-01-09T00:01:37.501Z,4.96
2017-01-09T00:02:37.509Z,4.9
2017-01-09T00:03:37.522Z,4.92
2017-01-09T00:04:37.532Z,4.96
2017-01-09T00:05:37.539Z,5.02
2017-01-09T00:06:37.552Z,4.96
2017-01-09T00:07:37.962Z,5.02
2017-01-09T00:08:37.570Z,4.96
2017-01-09T00:09:37.578Z,4.99
2017-01-09T00:10:37.599Z,4.96
2017-01-09T00:11:37.608Z,4.99
2017-01-09T00:12:37.620Z,5.04
2017-01-09T00:13:37.631Z,4.9
2017-01-09T00:14:37.636Z,5.02
2017-01-09T00:15:37.654Z,4.92
2017-01-09T00:16:37.657Z,4.9
2017-01-09T00:17:37.672Z,5.04
2017-01-09T00:18:37.681Z,5
2017-01-09T00:19:37.688Z,5.05
2017-01-09T00:20:37.707Z,4.99
2017-01-09T00:21:38.108Z,4.94
2017-01-09T00:22:37.722Z,4.99
2017-01-09T00:23:37.735Z,4.96
2017-01-09T00:24:37.766Z,4.92
2017-01-09T00:25:37.765Z,5
2017-01-09T00:26:37.766Z,4.96
2017-01-09T00:27:37.780Z,4.94
2017-01-09T00:28:37.789Z,5
2017-01-09T00:29:37.799Z,4.89
2017-01-09T00:30:37.810Z,5
2017-01-09T00:31:37.818Z,5.02
2017-01-09T00:32:37.826Z,4.92
2017-01-09T00:33:37.843Z,5
2017-01-09T00:34:37.850Z,5.05
2017-01-09T00:35:37.857Z,4.96
2017-01-09T00:36:37.875Z,4.99
2017-01-09T00:37:37.876Z,5.07
2017-01-09T00:38:37.895Z,4.97
2017-01-09T00:39:37.911Z,4.99
2017-01-09T00:40:37.913Z,5.04
2017-01-09T00:41:37.926Z,4.92
2017-01-09T00:42:37.941Z,4.97
2017-01-09T00:43:37.945Z,5
2017-01-09T00:44:37.956Z,5.05
2017-01-09T00:45:37.969Z,4.99
2017-01-09T00:46:37.988Z,5
2017-01-09T00:47:37.987Z,4.92
2017-01-09T00:48:37.999Z,5
2017-01-09T00:49:38.015Z,4.99
2017-01-09T00:50:38.030Z,4.99
2017-01-09T00:51:38.036Z,4.97
2017-01-09T00:52:38.041Z,4.89
2017-01-09T00:53:38.063Z,5.04
2017-01-09T00:54:38.068Z,5
2017-01-09T00:55:38.075Z,4.89
2017-01-09T00:56:38.089Z,4.94
2017-01-09T00:57:38.095Z,5.02
2017-01-09T00:58:38.110Z,5.04
2017-01-09T00:59:38.124Z,5.04
2017-01-09T01:00:38.131Z,4.99
2017-01-09T01:01:38.138Z,5
2017-01-09T01:02:38.156Z,5.04
2017-01-09T01:03:38.166Z,5.04
2017-01-09T01:04:38.173Z,5.04
2017-01-09T01:05:38.184Z,4.96
2017-01-09T01:06:38.194Z,5.08
2017-01-09T01:07:38.199Z,5.04
2017-01-09T01:08:38.215Z,5
2017-01-09T01:09:38.225Z,5.02
2017-01-09T01:10:38.237Z,4.99
2017-01-09T01:11:38.253Z,5
2017-01-09T01:12:38.264Z,4.97
2017-01-09T01:13:38.268Z,4.99
2017-01-09T01:14:38.278Z,4.99
2017-01-09T01:15:38.288Z,5.02
2017-01-09T01:16:38.302Z,4.97
2017-01-09T01:17:38.311Z,4.97
2017-01-09T01:18:38.325Z,5
2017-01-09T01:19:38.332Z,4.99
2017-01-09T01:20:38.374Z,4.99
2017-01-09T01:21:38.351Z,5
2017-01-09T01:22:38.364Z,5.02
2017-01-09T01:23:38.372Z,4.97
2017-01-09T01:24:38.386Z,4.92
2017-01-09T01:25:38.397Z,5.02
2017-01-09T01:26:38.418Z,5.08
2017-01-09T01:27:38.415Z,5.05
2017-01-09T01:28:38.457Z,5
2017-01-09T01:29:38.442Z,4.99
2017-01-09T01:30:38.455Z,4.99
2017-01-09T01:31:38.493Z,5.02
2017-01-09T01:32:38.499Z,5.04
2017-01-09T01:33:38.483Z,4.99
2017-01-09T01:34:38.494Z,4.96
2017-01-09T01:35:38.505Z,4.97
2017-01-09T01:36:38.516Z,4.92
2017-01-09T01:37:38.526Z,4.9
2017-01-09T01:38:38.534Z,5.02
2017-01-09T01:39:38.548Z,4.99
2017-01-09T01:40:38.556Z,4.96
2017-01-09T01:41:38.577Z,4.92
2017-01-09T01:42:38.577Z,4.99
2017-01-09T01:43:38.587Z,4.97
2017-01-09T01:44:38.602Z,5.05
2017-01-09T01:45:38.611Z,4.92
2017-01-09T01:46:38.621Z,5
2017-01-09T01:47:38.634Z,4.94
2017-01-09T01:48:38.642Z,4.99
2017-01-09T01:49:38.649Z,4.99
2017-01-09T01:50:38.665Z,4.99
2017-01-09T01:51:38.673Z,4.92
2017-01-09T01:52:38.684Z,5.07
2017-01-09T01:53:38.693Z,4.99
2017-01-09T01:54:38.705Z,4.92
2017-01-09T01:55:38.717Z,5.02
2017-01-09T01:56:38.728Z,4.96
2017-01-09T01:57:38.741Z,5
2017-01-09T01:58:38.748Z,5.02
2017-01-09T01:59:38.759Z,5
2017-01-09T02:00:38.771Z,4.92
2017-01-09T02:01:38.784Z,4.94
2017-01-09T02:02:38.787Z,5
2017-01-09T02:03:38.801Z,4.97
2017-01-09T02:04:38.822Z,4.87
2017-01-09T02:05:38.867Z,4.89
2017-01-09T02:06:38.840Z,4.99
2017-01-09T02:07:38.843Z,4.99
2017-01-09T02:08:38.857Z,4.99
2017-01-09T02:09:38.865Z,4.99
2017-01-09T02:10:38.878Z,4.92
2017-01-09T02:11:38.917Z,4.99
2017-01-09T02:12:38.900Z,4.97
2017-01-09T02:13:39.053Z,4.92
2017-01-09T02:14:38.918Z,5
2017-01-09T02:15:38.928Z,4.99
2017-01-09T02:16:38.971Z,4.92
2017-01-09T02:17:38.961Z,5.02
2017-01-09T02:18:38.964Z,4.92
2017-01-09T02:19:38.973Z,4.96
2017-01-09T02:20:38.982Z,4.99
2017-01-09T02:21:38.996Z,4.92
2017-01-09T02:22:39.004Z,5.04
2017-01-09T02:23:39.015Z,4.97
2017-01-09T02:24:39.032Z,4.96
2017-01-09T02:25:39.037Z,4.96
2017-01-09T02:26:39.050Z,4.97
2017-01-09T02:27:39.058Z,4.99
2017-01-09T02:28:39.079Z,4.94
2017-01-09T02:29:39.077Z,5.07
2017-01-09T02:30:39.094Z,5.07
2017-01-09T02:31:39.107Z,4.94
2017-01-09T02:32:39.114Z,4.99
2017-01-09T02:33:39.122Z,4.99
2017-01-09T02:34:39.131Z,5.02
2017-01-09T02:35:39.144Z,4.94
2017-01-09T02:36:39.159Z,5
2017-01-09T02:37:39.165Z,5.04
2017-01-09T02:38:39.174Z,5.1
2017-01-09T02:39:39.191Z,4.94
2017-01-09T02:40:39.193Z,5.07
2017-01-09T02:41:39.215Z,5.02
2017-01-09T02:42:39.219Z,4.99
2017-01-09T02:43:39.230Z,5.04
2017-01-09T02:44:39.241Z,4.99
2017-01-09T02:45:39.248Z,4.97
2017-01-09T02:46:39.260Z,4.89
2017-01-09T02:47:39.273Z,5
2017-01-09T02:48:39.285Z,5.02
2017-01-09T02:49:39.291Z,4.92
2017-01-09T02:50:39.306Z,4.92
2017-01-09T02:51:39.314Z,4.99
2017-01-09T02:52:39.328Z,4.97
2017-01-09T02:53:39.338Z,5
2017-01-09T02:54:39.346Z,4.92
2017-01-09T02:55:39.360Z,5
2017-01-09T02:56:39.366Z,4.94
2017-01-09T02:57:39.377Z,5.02
2017-01-09T02:58:39.391Z,4.99
2017-01-09T02:59:39.429Z,4.97
2017-01-09T03:00:39.413Z,5
2017-01-09T03:01:39.422Z,5.04
2017-01-09T03:02:39.430Z,4.96
2017-01-09T03:03:39.443Z,5.04
2017-01-09T03:04:39.451Z,4.97
2017-01-09T03:05:39.464Z,4.97
2017-01-09T03:06:39.484Z,5.04
2017-01-09T03:07:39.486Z,5
2017-01-09T03:08:39.495Z,4.99
2017-01-09T03:09:39.504Z,4.97
2017-01-09T03:10:39.516Z,5.02
2017-01-09T03:11:39.532Z,4.99
2017-01-09T03:12:39.542Z,4.99
2017-01-09T03:13:39.547Z,4.99
2017-01-09T03:14:39.560Z,4.89
2017-01-09T03:15:39.569Z,5
2017-01-09T03:16:39.580Z,5.04
2017-01-09T03:17:39.594Z,4.97
2017-01-09T03:18:39.600Z,4.94
2017-01-09T03:19:39.616Z,4.96
2017-01-09T03:20:39.634Z,4.92
2017-01-09T03:21:39.634Z,4.93
2017-01-09T03:22:39.645Z,4.99
2017-01-09T03:23:39.658Z,4.99
2017-01-09T03:24:39.680Z,4.92
2017-01-09T03:25:39.675Z,5.02
2017-01-09T03:26:39.684Z,4.99
2017-01-09T03:27:39.700Z,4.99
2017-01-09T03:28:39.718Z,4.99
2017-01-09T03:29:39.722Z,5.05
2017-01-09T03:30:39.735Z,5
2017-01-09T03:31:39.741Z,4.99
2017-01-09T03:32:39.768Z,5.05
2017-01-09T03:33:39.765Z,5
2017-01-09T03:34:39.773Z,4.99
2017-01-09T03:35:39.789Z,5
2017-01-09T03:36:39.793Z,4.99
2017-01-09T03:37:39.803Z,4.97
2017-01-09T03:38:39.815Z,5
2017-01-09T03:39:39.823Z,5.02
2017-01-09T03:40:39.833Z,4.94
2017-01-09T03:41:39.853Z,5.02
2017-01-09T03:42:39.859Z,4.96
2017-01-09T03:43:39.872Z,5.04
2017-01-09T03:44:39.879Z,4.94
2017-01-09T03:45:39.897Z,4.99
2017-01-09T03:46:39.903Z,4.92
2017-01-09T03:47:39.917Z,5.07
2017-01-09T03:48:39.923Z,5
2017-01-09T03:49:39.936Z,4.97
2017-01-09T03:50:39.947Z,5.04
2017-01-09T03:51:39.956Z,5.04
2017-01-09T03:52:39.970Z,4.9
2017-01-09T03:53:39.974Z,4.99
2017-01-09T03:54:39.991Z,5.04
2017-01-09T03:55:40.005Z,5.04
2017-01-09T03:56:40.012Z,4.99
2017-01-09T03:57:40.019Z,5
2017-01-09T03:58:40.035Z,5.07
2017-01-09T03:59:40.046Z,4.97
2017-01-09T04:00:40.053Z,4.99
2017-01-09T04:01:40.064Z,4.96
2017-01-09T04:02:40.077Z,4.92
2017-01-09T04:03:40.086Z,4.89
2017-01-09T04:04:40.095Z,4.97
2017-01-09T04:05:40.103Z,5.04
2017-01-09T04:06:40.113Z,4.94
2017-01-09T04:07:40.131Z,5.02
2017-01-09T04:08:40.136Z,5.02
2017-01-09T04:09:40.150Z,4.89
2017-01-09T04:10:40.155Z,4.89
2017-01-09T04:11:40.175Z,5.02
2017-01-09T04:12:40.180Z,4.97
2017-01-09T04:13:40.187Z,5.05
2017-01-09T04:14:40.202Z,5.02
2017-01-09T04:15:40.209Z,5
2017-01-09T04:16:40.252Z,4.99
2017-01-09T04:17:40.233Z,4.99
2017-01-09T04:18:40.248Z,5
2017-01-09T04:19:40.253Z,4.96
2017-01-09T04:20:40.264Z,5.02
2017-01-09T04:21:40.274Z,5.02
2017-01-09T04:22:40.289Z,5.02
2017-01-09T04:23:40.300Z,4.96
2017-01-09T04:24:40.310Z,5.02
2017-01-09T04:25:40.318Z,5
2017-01-09T04:26:40.329Z,5.05
2017-01-09T04:27:40.343Z,4.94
2017-01-09T04:28:40.352Z,4.99
2017-01-09T04:29:40.365Z,5.02
2017-01-09T04:30:40.374Z,4.96
2017-01-09T04:31:40.383Z,4.99
2017-01-09T04:32:40.398Z,4.94
2017-01-09T04:33:40.405Z,5.04
2017-01-09T04:34:40.419Z,5
2017-01-09T04:35:40.424Z,5.02
2017-01-09T04:36:40.443Z,5.02
2017-01-09T04:37:40.448Z,5.04
2017-01-09T04:38:40.468Z,5.02
2017-01-09T04:39:40.471Z,4.99
2017-01-09T04:40:40.483Z,4.99
2017-01-09T04:41:40.491Z,4.92
2017-01-09T04:42:40.498Z,4.99
2017-01-09T04:43:40.510Z,4.9
2017-01-09T04:44:40.526Z,5.02
2017-01-09T04:45:40.533Z,4.97
2017-01-09T04:46:40.547Z,4.92
2017-01-09T04:47:40.555Z,5.05
2017-01-09T04:48:40.570Z,4.99
2017-01-09T04:49:40.578Z,5.04
2017-01-09T04:50:40.585Z,4.99
2017-01-09T04:51:40.596Z,5.02
2017-01-09T04:52:40.609Z,4.99
2017-01-09T04:53:40.617Z,5.04
2017-01-09T04:54:40.634Z,4.99
2017-01-09T04:55:40.637Z,4.99
2017-01-09T04:56:40.652Z,4.96
2017-01-09T04:57:40.661Z,4.92
2017-01-09T04:58:40.678Z,4.92
2017-01-09T04:59:40.681Z,4.97
2017-01-09T05:00:40.693Z,5.02
2017-01-09T05:01:40.703Z,4.93
2017-01-09T05:02:40.716Z,4.99
2017-01-09T05:03:40.724Z,4.97
2017-01-09T05:04:40.741Z,4.94
2017-01-09T05:05:40.748Z,4.97
2017-01-09T05:06:40.758Z,4.93
2017-01-09T05:07:40.768Z,5.02
2017-01-09T05:08:40.781Z,4.97
2017-01-09T05:09:40.789Z,4.92
2017-01-09T05:10:40.804Z,4.97
2017-01-09T05:11:40.812Z,4.96
2017-01-09T05:12:40.823Z,4.99
2017-01-09T05:13:40.835Z,4.99
2017-01-09T05:14:40.844Z,4.92
2017-01-09T05:15:40.859Z,4.99
2017-01-09T05:16:40.867Z,5
2017-01-09T05:17:40.875Z,5.05
2017-01-09T05:18:40.893Z,4.96
2017-01-09T05:19:40.902Z,4.94
2017-01-09T05:20:40.916Z,4.99
2017-01-09T05:21:40.922Z,4.97
2017-01-09T05:22:40.927Z,4.9
2017-01-09T05:23:40.937Z,5.05
2017-01-09T05:24:40.951Z,5
2017-01-09T05:25:40.965Z,5.05
2017-01-09T05:26:40.983Z,5.02
2017-01-09T05:27:40.984Z,5.05
2017-01-09T05:28:40.996Z,5.1
2017-01-09T05:29:41.007Z,5.04
2017-01-09T05:30:41.016Z,4.99
2017-01-09T05:31:41.026Z,5.02
2017-01-09T05:32:41.043Z,4.99
2017-01-09T05:33:41.052Z,4.99
2017-01-09T05:34:41.058Z,4.99
2017-01-09T05:35:41.069Z,5.05
2017-01-09T05:36:41.078Z,4.89
2017-01-09T05:37:41.101Z,4.89
2017-01-09T05:38:41.105Z,5.05
2017-01-09T05:39:41.113Z,4.94
2017-01-09T05:40:41.123Z,4.97
2017-01-09T05:41:41.134Z,4.97
2017-01-09T05:42:41.151Z,4.99
2017-01-09T05:43:41.160Z,5.02
2017-01-09T05:44:41.167Z,4.99
2017-01-09T05:45:41.182Z,5.02
2017-01-09T05:46:41.187Z,4.99
2017-01-09T05:47:41.200Z,4.97
2017-01-09T05:48:41.212Z,5.02
2017-01-09T05:49:41.221Z,4.96
2017-01-09T05:50:41.226Z,5.05
2017-01-09T05:51:41.244Z,4.99
2017-01-09T05:52:41.250Z,4.92
2017-01-09T05:53:41.264Z,4.96
2017-01-09T05:54:41.272Z,5
2017-01-09T05:55:41.283Z,4.99
2017-01-09T05:56:41.296Z,5.05
2017-01-09T05:57:41.305Z,5.05
2017-01-09T05:58:41.320Z,5.04
2017-01-09T05:59:41.328Z,4.94
2017-01-09T06:00:41.335Z,4.97
2017-01-09T06:01:41.351Z,4.97
2017-01-09T06:02:41.355Z,4.99
2017-01-09T06:03:41.371Z,5.05
2017-01-09T06:04:41.379Z,5.02
2017-01-09T06:05:41.388Z,4.97
2017-01-09T06:06:41.402Z,5
2017-01-09T06:07:41.412Z,5.02
2017-01-09T06:08:41.422Z,4.99
2017-01-09T06:09:41.430Z,4.99
2017-01-09T06:10:41.443Z,5
2017-01-09T06:11:41.455Z,4.99
2017-01-09T06:12:41.464Z,5.07
2017-01-09T06:13:41.486Z,5.04
2017-01-09T06:14:41.482Z,5.05
2017-01-09T06:15:41.503Z,4.96
2017-01-09T06:16:41.512Z,5
2017-01-09T06:17:41.520Z,4.96
2017-01-09T06:18:41.531Z,5.07
2017-01-09T06:19:41.546Z,5
2017-01-09T06:20:41.551Z,4.97
2017-01-09T06:21:41.565Z,5.08
2017-01-09T06:22:41.577Z,5
2017-01-09T06:23:41.588Z,5.02
2017-01-09T06:24:41.594Z,4.99
2017-01-09T06:25:41.604Z,5.04
2017-01-09T06:26:41.614Z,5.05
2017-01-09T06:27:41.625Z,5.04
2017-01-09T06:28:41.637Z,4.97
2017-01-09T06:29:41.642Z,5.08
2017-01-09T06:30:41.661Z,5
2017-01-09T06:31:41.669Z,5.1
2017-01-09T06:32:41.679Z,5.05
2017-01-09T06:33:41.689Z,5.1
2017-01-09T06:34:41.703Z,5.05
2017-01-09T06:35:41.720Z,5.08
2017-01-09T06:36:41.723Z,5.02
2017-01-09T06:37:41.741Z,5.07
2017-01-09T06:38:41.748Z,5.07
2017-01-09T06:39:41.758Z,5.08
2017-01-09T06:40:42.155Z,5.04
2017-01-09T06:41:41.777Z,5
2017-01-09T06:42:41.787Z,5.11
2017-01-09T06:43:41.797Z,5.05
2017-01-09T06:44:41.809Z,5.08
2017-01-09T06:45:41.815Z,5.05
2017-01-09T06:46:41.832Z,5.08
2017-01-09T06:47:41.845Z,5.1
2017-01-09T06:48:41.852Z,5.07
2017-01-09T06:49:41.864Z,5.08
2017-01-09T06:50:41.869Z,5.07
2017-01-09T06:51:41.887Z,5.11
2017-01-09T06:52:41.891Z,5.08
2017-01-09T06:53:41.906Z,5.11
2017-01-09T06:54:41.917Z,5.08
2017-01-09T06:55:41.928Z,5.08
2017-01-09T06:56:41.944Z,5.08
2017-01-09T06:57:41.947Z,5.1
2017-01-09T06:58:41.961Z,5.05
2017-01-09T06:59:41.969Z,5.08
2017-01-09T07:00:41.979Z,5.12
2017-01-09T07:01:41.990Z,5.11
2017-01-09T07:02:42.002Z,5.1
2017-01-09T07:03:42.011Z,5.08
2017-01-09T07:04:42.024Z,5.08
2017-01-09T07:05:42.037Z,5.11
2017-01-09T07:06:42.044Z,5.07
2017-01-09T07:07:42.058Z,5.08
2017-01-09T07:08:42.067Z,5.11
2017-01-09T07:09:42.072Z,5.08
2017-01-09T07:10:42.090Z,5.18
2017-01-09T07:11:42.102Z,5.14
2017-01-09T07:12:42.112Z,5.04
2017-01-09T07:13:42.124Z,5.11
2017-01-09T07:14:42.134Z,5.11
2017-01-09T07:15:42.140Z,5.05
2017-01-09T07:16:42.151Z,5.08
2017-01-09T07:17:42.163Z,5.12
2017-01-09T07:18:42.173Z,5.04
2017-01-09T07:19:42.192Z,5.12
2017-01-09T07:20:42.198Z,5.08
2017-01-09T07:21:42.203Z,5.12
2017-01-09T07:22:42.214Z,5.07
2017-01-09T07:23:42.225Z,5.07
2017-01-09T07:24:42.249Z,5.08
2017-01-09T07:25:42.277Z,5.07
2017-01-09T07:26:42.258Z,5.12
2017-01-09T07:27:42.266Z,5.08
2017-01-09T07:28:42.277Z,5.15
2017-01-09T07:29:42.293Z,5.1
2017-01-09T07:30:42.304Z,5.08
2017-01-09T07:31:42.315Z,5.12
2017-01-09T07:32:42.348Z,5.17
2017-01-09T07:33:42.331Z,5.08
2017-01-09T07:34:42.351Z,5.04
2017-01-09T07:35:42.354Z,5.15
2017-01-09T07:36:42.393Z,5.12
2017-01-09T07:37:42.401Z,5.18
2017-01-09T07:38:42.386Z,5.21
2017-01-09T07:39:42.397Z,5.15
2017-01-09T07:40:42.409Z,5.14
2017-01-09T07:41:42.418Z,5.1
2017-01-09T07:42:42.431Z,5.18
2017-01-09T07:43:42.438Z,5.11
2017-01-09T07:44:42.452Z,5.14
2017-01-09T07:45:42.461Z,5.14
2017-01-09T07:46:42.469Z,5.2
2017-01-09T07:47:42.485Z,5.15
2017-01-09T07:48:42.492Z,5.15
2017-01-09T07:49:42.509Z,5.14
2017-01-09T07:50:42.512Z,5.15
2017-01-09T07:51:42.526Z,5.14
2017-01-09T07:52:42.543Z,5.11
2017-01-09T07:53:42.552Z,5.1
2017-01-09T07:54:42.554Z,5.14
2017-01-09T07:55:42.572Z,5.23
2017-01-09T07:56:42.575Z,5.2
2017-01-09T07:57:42.589Z,5.17
2017-01-09T07:58:42.601Z,5.15
2017-01-09T07:59:42.609Z,5.18
2017-01-09T08:00:42.622Z,5.17
2017-01-09T08:01:42.629Z,5.17
2017-01-09T08:02:42.640Z,5.18
2017-01-09T08:03:42.707Z,5.12
2017-01-09T08:04:42.661Z,5.17
2017-01-09T08:05:42.678Z,5.2
2017-01-09T08:06:42.689Z,5.14
2017-01-09T08:07:42.697Z,5.21
2017-01-09T08:08:42.716Z,5.12
2017-01-09T08:09:42.718Z,5.17
2017-01-09T08:10:42.732Z,5.2
2017-01-09T08:11:42.743Z,5.2
2017-01-09T08:12:42.756Z,5.18
2017-01-09T08:13:42.762Z,5.23
2017-01-09T08:14:42.774Z,5.18
2017-01-09T08:15:42.784Z,5.18
2017-01-09T08:16:42.791Z,5.18
2017-01-09T08:17:42.809Z,5.2
2017-01-09T08:18:42.819Z,5.18
2017-01-09T08:19:42.832Z,5.23
2017-01-09T08:20:42.840Z,5.21
2017-01-09T08:21:42.848Z,5.18
2017-01-09T08:22:42.863Z,5.21
2017-01-09T08:23:42.875Z,5.28
2017-01-09T08:24:42.884Z,5.2
2017-01-09T08:25:42.891Z,5.26
2017-01-09T08:26:42.904Z,5.2
2017-01-09T08:27:42.912Z,5.2
2017-01-09T08:28:42.925Z,5.23
2017-01-09T08:29:42.934Z,5.2
2017-01-09T08:30:42.948Z,5.21
2017-01-09T08:31:42.962Z,5.21
2017-01-09T08:32:42.973Z,5.15
2017-01-09T08:33:42.981Z,5.2
2017-01-09T08:34:42.995Z,5.23
2017-01-09T08:35:43.002Z,5.21
2017-01-09T08:36:43.011Z,5.21
2017-01-09T08:37:43.022Z,5.23
2017-01-09T08:38:43.041Z,5.21
2017-01-09T08:39:43.044Z,5.26
2017-01-09T08:40:43.055Z,5.23
2017-01-09T08:41:43.089Z,5.23
2017-01-09T08:42:43.073Z,5.25
2017-01-09T08:43:43.088Z,5.21
2017-01-09T08:44:43.098Z,5.23
2017-01-09T08:45:43.120Z,5.17
2017-01-09T08:46:43.115Z,5.23
2017-01-09T08:47:43.128Z,5.26
2017-01-09T08:48:43.139Z,5.23
2017-01-09T08:49:43.151Z,5.29
2017-01-09T08:50:43.159Z,5.28
2017-01-09T08:51:43.174Z,5.26
2017-01-09T08:52:43.180Z,5.26
2017-01-09T08:53:43.194Z,5.28
2017-01-09T08:54:43.205Z,5.23
2017-01-09T08:55:43.213Z,5.15
2017-01-09T08:56:43.228Z,5.23
2017-01-09T08:57:43.240Z,5.29
2017-01-09T08:58:43.255Z,5.17
2017-01-09T08:59:43.257Z,5.21
2017-01-09T09:00:43.270Z,5.18
2017-01-09T09:01:43.282Z,5.2
2017-01-09T09:02:43.296Z,5.2
2017-01-09T09:03:43.304Z,5.17
2017-01-09T09:04:43.316Z,5.2
2017-01-09T09:05:43.321Z,5.2
2017-01-09T09:06:43.336Z,5.21
2017-01-09T09:07:43.344Z,5.2
2017-01-09T09:08:43.358Z,5.25
2017-01-09T09:09:43.370Z,5.2
2017-01-09T09:10:43.381Z,5.21
2017-01-09T09:11:43.387Z,5.25
2017-01-09T09:12:43.403Z,5.21
2017-01-09T09:13:43.412Z,5.2
2017-01-09T09:14:43.423Z,5.25
2017-01-09T09:15:43.433Z,5.17
2017-01-09T09:16:43.445Z,5.23
2017-01-09T09:17:43.454Z,5.3
2017-01-09T09:18:43.466Z,5.36
2017-01-09T09:19:43.475Z,5.36
2017-01-09T09:20:43.494Z,5.3
2017-01-09T09:21:43.501Z,5.33
2017-01-09T09:22:43.515Z,5.33
2017-01-09T09:23:43.524Z,5.39
2017-01-09T09:24:43.531Z,5.33
2017-01-09T09:25:43.544Z,5.35
2017-01-09T09:26:43.551Z,5.38
2017-01-09T09:27:43.562Z,5.36
2017-01-09T09:28:43.574Z,5.33
2017-01-09T09:29:43.591Z,5.29
2017-01-09T09:30:43.607Z,5.35
2017-01-09T09:31:43.615Z,5.35
2017-01-09T09:32:43.620Z,5.33
2017-01-09T09:33:43.643Z,5.3
2017-01-09T09:34:43.640Z,5.26
2017-01-09T09:35:43.656Z,5.28
2017-01-09T09:36:43.662Z,5.33
2017-01-09T09:37:43.673Z,5.43
2017-01-09T09:38:43.684Z,5.32
2017-01-09T09:39:43.699Z,5.33
2017-01-09T09:40:43.708Z,5.38
2017-01-09T09:41:43.721Z,5.28
2017-01-09T09:42:43.731Z,5.36
2017-01-09T09:43:43.739Z,5.35
2017-01-09T09:44:43.751Z,5.36
2017-01-09T09:45:43.758Z,5.36
2017-01-09T09:46:43.775Z,5.46
2017-01-09T09:47:43.786Z,5.41
2017-01-09T09:48:43.797Z,5.33
2017-01-09T09:49:43.812Z,5.43
2017-01-09T09:50:43.817Z,5.35
2017-01-09T09:51:43.830Z,5.38
2017-01-09T09:52:43.839Z,5.44
2017-01-09T09:53:43.848Z,5.35
2017-01-09T09:54:43.864Z,5.36
2017-01-09T09:55:43.871Z,5.46
2017-01-09T09:56:43.888Z,5.48
2017-01-09T09:57:43.898Z,5.39
2017-01-09T09:58:43.911Z,5.35
2017-01-09T09:59:43.918Z,5.41
2017-01-09T10:00:43.930Z,5.44
2017-01-09T10:01:43.938Z,5.46
2017-01-09T10:02:43.951Z,5.39
2017-01-09T10:03:43.959Z,5.39
2017-01-09T10:04:43.971Z,5.43
2017-01-09T10:05:43.983Z,5.43
2017-01-09T10:06:43.995Z,5.43
2017-01-09T10:07:44.004Z,5.5
2017-01-09T10:08:44.020Z,5.44
2017-01-09T10:09:44.030Z,5.48
2017-01-09T10:10:44.040Z,5.5
2017-01-09T10:11:44.048Z,5.47
2017-01-09T10:12:44.062Z,5.43
2017-01-09T10:13:44.071Z,5.56
2017-01-09T10:14:44.087Z,5.48
2017-01-09T10:15:44.097Z,5.43
2017-01-09T10:16:44.108Z,5.47
2017-01-09T10:17:44.117Z,5.5
2017-01-09T10:18:44.129Z,5.51
2017-01-09T10:19:44.140Z,5.57
2017-01-09T10:20:44.151Z,5.5
2017-01-09T10:21:44.159Z,5.5
2017-01-09T10:22:44.169Z,5.5
2017-01-09T10:23:44.181Z,5.54
2017-01-09T10:24:44.196Z,5.47
2017-01-09T10:25:44.207Z,5.56
2017-01-09T10:26:44.222Z,5.62
2017-01-09T10:27:44.227Z,5.5
2017-01-09T10:28:44.241Z,5.51
2017-01-09T10:29:44.248Z,5.5
2017-01-09T10:30:44.260Z,5.5
2017-01-09T10:31:44.270Z,5.53
2017-01-09T10:32:44.281Z,5.61
2017-01-09T10:33:44.291Z,5.53
2017-01-09T10:34:44.306Z,5.57
2017-01-09T10:35:44.317Z,5.57
2017-01-09T10:36:44.329Z,5.64
2017-01-09T10:37:44.341Z,5.57
2017-01-09T10:38:44.353Z,5.59
2017-01-09T10:39:44.358Z,5.61
2017-01-09T10:40:44.374Z,5.5
2017-01-09T10:41:44.386Z,5.61
2017-01-09T10:42:44.396Z,5.56
2017-01-09T10:43:44.407Z,5.59
2017-01-09T10:44:44.418Z,5.59
2017-01-09T10:45:44.427Z,5.66
2017-01-09T10:46:44.447Z,5.57
2017-01-09T10:47:44.455Z,5.57
2017-01-09T10:48:44.469Z,5.61
2017-01-09T10:49:44.472Z,5.68
2017-01-09T10:50:44.484Z,5.65
2017-01-09T10:51:44.494Z,5.71
2017-01-09T10:52:44.506Z,5.64
2017-01-09T10:53:44.520Z,5.57
2017-01-09T10:54:44.531Z,5.65
2017-01-09T10:55:44.538Z,5.64
2017-01-09T10:56:44.552Z,5.65
2017-01-09T10:57:44.567Z,5.68
2017-01-09T10:58:44.574Z,5.71
2017-01-09T10:59:44.584Z,5.61
2017-01-09T11:00:44.595Z,5.65
2017-01-09T11:01:44.609Z,5.65
2017-01-09T11:02:44.619Z,5.64
2017-01-09T11:03:44.631Z,5.68
2017-01-09T11:04:44.640Z,5.64
2017-01-09T11:05:44.658Z,5.61
2017-01-09T11:06:44.667Z,5.73
2017-01-09T11:07:44.682Z,5.62
2017-01-09T11:08:44.691Z,5.64
2017-01-09T11:09:44.706Z,5.66
2017-01-09T11:10:44.711Z,5.61
2017-01-09T11:11:44.722Z,5.68
2017-01-09T11:12:44.734Z,5.62
2017-01-09T11:13:45.146Z,5.73
2017-01-09T11:14:44.781Z,5.69
2017-01-09T11:15:44.767Z,5.62
2017-01-09T11:16:44.786Z,5.71
2017-01-09T11:17:44.790Z,5.64
2017-01-09T11:18:44.807Z,5.62
2017-01-09T11:19:44.811Z,5.72
2017-01-09T11:20:44.824Z,5.66
2017-01-09T11:21:44.836Z,5.57
2017-01-09T11:22:44.849Z,5.73
2017-01-09T11:23:44.859Z,5.75
2017-01-09T11:24:44.882Z,5.65
2017-01-09T11:25:44.883Z,5.59
2017-01-09T11:26:44.891Z,5.69
2017-01-09T11:27:44.901Z,5.72
2017-01-09T11:28:44.909Z,5.65
2017-01-09T11:29:44.930Z,5.68
2017-01-09T11:30:44.936Z,5.75
2017-01-09T11:31:44.947Z,5.66
2017-01-09T11:32:44.960Z,5.65
2017-01-09T11:33:44.971Z,5.65
2017-01-09T11:34:44.978Z,5.64
2017-01-09T11:35:44.990Z,5.73
2017-01-09T11:36:45.010Z,5.66
2017-01-09T11:37:45.014Z,5.65
2017-01-09T11:38:45.028Z,5.65
2017-01-09T11:39:45.039Z,5.59
2017-01-09T11:40:45.048Z,5.64
2017-01-09T11:41:45.060Z,5.69
2017-01-09T11:42:45.076Z,5.72
2017-01-09T11:43:45.086Z,5.61
2017-01-09T11:44:45.099Z,5.68
2017-01-09T11:45:45.110Z,5.72
2017-01-09T11:46:45.124Z,5.61
2017-01-09T11:47:45.131Z,5.65
2017-01-09T11:48:45.143Z,5.66
2017-01-09T11:49:45.163Z,5.72
2017-01-09T11:50:45.166Z,5.64
2017-01-09T11:51:45.180Z,5.71
2017-01-09T11:52:45.184Z,5.66
2017-01-09T11:53:45.203Z,5.75
2017-01-09T11:54:45.210Z,5.62
2017-01-09T11:55:45.220Z,5.69
2017-01-09T11:56:45.228Z,5.76
2017-01-09T11:57:45.244Z,5.73
2017-01-09T11:58:45.253Z,5.64
2017-01-09T11:59:45.261Z,5.69
2017-01-09T12:00:45.277Z,5.75
2017-01-09T12:01:45.285Z,5.73
2017-01-09T12:02:45.297Z,5.69
2017-01-09T12:03:45.307Z,5.75
2017-01-09T12:04:45.324Z,5.73
2017-01-09T12:05:45.333Z,5.69
2017-01-09T12:06:45.341Z,5.73
2017-01-09T12:07:45.354Z,5.73
2017-01-09T12:08:45.391Z,5.75
2017-01-09T12:09:45.375Z,5.69
2017-01-09T12:10:45.385Z,5.66
2017-01-09T12:11:45.395Z,5.73
2017-01-09T12:12:45.410Z,5.76
2017-01-09T12:13:45.424Z,5.72
2017-01-09T12:14:45.438Z,5.71
2017-01-09T12:15:45.441Z,5.69
2017-01-09T12:16:45.453Z,5.71
2017-01-09T12:17:45.464Z,5.69
2017-01-09T12:18:45.473Z,5.72
2017-01-09T12:19:45.489Z,5.76
2017-01-09T12:20:45.499Z,5.69
2017-01-09T12:21:45.514Z,5.73
2017-01-09T12:22:45.524Z,5.71
2017-01-09T12:23:45.530Z,5.73
2017-01-09T12:24:45.543Z,5.71
2017-01-09T12:25:45.557Z,5.68
2017-01-09T12:26:45.566Z,5.76
2017-01-09T12:27:45.581Z,5.73
2017-01-09T12:28:45.596Z,5.76
2017-01-09T12:29:45.601Z,5.76
2017-01-09T12:30:45.612Z,5.73
2017-01-09T12:31:45.623Z,5.73
2017-01-09T12:32:45.632Z,5.76
2017-01-09T12:33:45.645Z,5.72
2017-01-09T12:34:45.654Z,5.76
2017-01-09T12:35:45.668Z,5.71
2017-01-09T12:36:45.679Z,5.73
2017-01-09T12:37:45.689Z,5.73
2017-01-09T12:38:45.701Z,5.72
2017-01-09T12:39:45.716Z,5.72
2017-01-09T12:40:45.728Z,5.72
2017-01-09T12:41:45.746Z,5.76
2017-01-09T12:42:45.752Z,5.73
2017-01-09T12:43:45.761Z,5.72
2017-01-09T12:44:45.774Z,5.72
2017-01-09T12:45:45.780Z,5.72
2017-01-09T12:46:45.795Z,5.69
2017-01-09T12:47:45.803Z,5.73
2017-01-09T12:48:45.814Z,5.76
2017-01-09T12:49:45.839Z,5.69
2017-01-09T12:50:45.835Z,5.71
2017-01-09T12:51:45.854Z,5.69
2017-01-09T12:52:45.863Z,5.73
2017-01-09T12:53:45.873Z,5.69
2017-01-09T12:54:45.887Z,5.69
2017-01-09T12:55:45.898Z,5.72
2017-01-09T12:56:45.904Z,5.64
2017-01-09T12:57:45.918Z,5.73
2017-01-09T12:58:45.939Z,5.65
2017-01-09T12:59:45.942Z,5.62
2017-01-09T13:00:45.952Z,5.75
2017-01-09T13:01:45.961Z,5.64
2017-01-09T13:02:45.976Z,5.71
2017-01-09T13:03:45.988Z,5.62
2017-01-09T13:04:46.000Z,5.72
2017-01-09T13:05:46.013Z,5.75
2017-01-09T13:06:46.024Z,5.68
2017-01-09T13:07:46.031Z,5.68
2017-01-09T13:08:46.042Z,5.66
2017-01-09T13:09:46.049Z,5.59
2017-01-09T13:10:46.095Z,5.61
2017-01-09T13:11:46.079Z,5.61
2017-01-09T13:12:46.093Z,5.69
2017-01-09T13:13:46.102Z,5.71
2017-01-09T13:14:46.114Z,5.62
2017-01-09T13:15:46.123Z,5.71
2017-01-09T13:16:46.132Z,5.57
2017-01-09T13:17:46.143Z,5.64
2017-01-09T13:18:46.163Z,5.69
2017-01-09T13:19:46.570Z,5.66
2017-01-09T13:20:46.179Z,5.72
2017-01-09T13:21:46.193Z,5.64
2017-01-09T13:22:46.201Z,5.73
2017-01-09T13:23:46.215Z,5.65
2017-01-09T13:24:46.223Z,5.66